sensor_id;sensor_type;location;lat;lon;timestamp;pressure;altitude;pressure_sealevel;temperature;humidity
20105;BME280;10212;42.714;23.310;2022-12-18T00:04:43;95928.22;;;4.49;100.00
20105;BME280;10212;42.714;23.310;2022-12-18T00:09:43;95930.69;;;4.41;100.00
20105;BME280;10212;42.714;23.310;2022-12-18T00:14:44;95937.94;;;4.27;100.00
20105;BME280;10212;42.714;23.310;2022-12-18T00:19:44;95937.13;;;4.27;100.00
20105;BME280;10212;42.714;23.310;2022-12-18T00:24:45;95951.28;;;4.22;100.00
20105;BME280;10212;42.714;23.310;2022-12-18T00:29:45;95960.41;;;4.07;100.00
20105;BME280;10212;42.714;23.310;2022-12-18T00:34:45;95958.66;;;4.07;100.00
20105;BME280;10212;42.714;23.310;2022-12-18T00:39:47;95964.13;;;3.94;100.00
20105;BME280;10212;42.714;23.310;2022-12-18T00:44:48;95956.94;;;3.88;100.00
20105;BME280;10212;42.714;23.310;2022-12-18T00:49:48;95969.88;;;3.78;100.00
20105;BME280;10212;42.714;23.310;2022-12-18T00:54:49;95978.97;;;3.72;100.00
20105;BME280;10212;42.714;23.310;2022-12-18T00:59:51;95985.34;;;3.78;100.00
20105;BME280;10212;42.714;23.310;2022-12-18T01:04:52;95983.69;;;3.77;100.00
20105;BME280;10212;42.714;23.310;2022-12-18T01:09:52;95988.06;;;3.67;100.00
20105;BME280;10212;42.714;23.310;2022-12-18T01:14:53;95999.31;;;3.56;100.00
20105;BME280;10212;42.714;23.310;2022-12-18T01:19:53;96004.91;;;3.51;100.00
20105;BME280;10212;42.714;23.310;2022-12-18T01:24:53;96002.31;;;3.51;100.00
20105;BME280;10212;42.714;23.310;2022-12-18T01:29:54;96009.09;;;3.52;100.00
20105;BME280;10212;42.714;23.310;2022-12-18T01:34:54;96004.09;;;3.41;100.00
20105;BME280;10212;42.714;23.310;2022-12-18T01:39:55;96012.88;;;3.28;100.00
20105;BME280;10212;42.714;23.310;2022-12-18T01:55:16;96027.38;;;3.09;100.00
20105;BME280;10212;42.714;23.310;2022-12-18T02:00:19;96029.56;;;3.04;100.00
20105;BME280;10212;42.714;23.310;2022-12-18T02:05:29;96035.06;;;2.99;100.00
20105;BME280;10212;42.714;23.310;2022-12-18T02:16:29;96041.75;;;3.02;100.00
20105;BME280;10212;42.714;23.310;2022-12-18T02:21:54;96048.50;;;3.03;100.00
20105;BME280;10212;42.714;23.310;2022-12-18T02:27:00;96053.66;;;3.03;100.00
20105;BME280;10212;42.714;23.310;2022-12-18T02:32:06;96053.41;;;3.06;100.00
20105;BME280;10212;42.714;23.310;2022-12-18T02:37:12;96061.81;;;3.08;100.00
20105;BME280;10212;42.714;23.310;2022-12-18T02:42:14;96056.94;;;3.05;100.00
20105;BME280;10212;42.714;23.310;2022-12-18T02:47:19;96070.22;;;3.00;100.00
20105;BME280;10212;42.714;23.310;2022-12-18T02:57:46;96070.28;;;2.79;100.00
20105;BME280;10212;42.714;23.310;2022-12-18T03:08:14;96063.03;;;2.63;100.00
20105;BME280;10212;42.714;23.310;2022-12-18T03:13:26;96061.78;;;2.57;100.00
20105;BME280;10212;42.714;23.310;2022-12-18T03:18:47;96072.06;;;2.57;100.00
20105;BME280;10212;42.714;23.310;2022-12-18T03:23:51;96084.44;;;2.63;100.00
20105;BME280;10212;42.714;23.310;2022-12-18T03:29:13;96082.97;;;2.71;100.00
20105;BME280;10212;42.714;23.310;2022-12-18T03:34:21;96091.59;;;2.81;100.00
20105;BME280;10212;42.714;23.310;2022-12-18T03:39:24;96111.66;;;2.87;100.00
20105;BME280;10212;42.714;23.310;2022-12-18T03:44:31;96114.56;;;2.73;99.12
20105;BME280;10212;42.714;23.310;2022-12-18T03:54:54;96127.53;;;2.61;99.26
20105;BME280;10212;42.714;23.310;2022-12-18T04:00:01;96125.28;;;2.47;99.91
20105;BME280;10212;42.714;23.310;2022-12-18T04:05:04;96136.88;;;2.41;100.00
20105;BME280;10212;42.714;23.310;2022-12-18T04:10:07;96132.69;;;2.40;100.00
20105;BME280;10212;42.714;23.310;2022-12-18T04:15:09;96143.31;;;2.47;99.39
20105;BME280;10212;42.714;23.310;2022-12-18T04:20:10;96155.34;;;2.46;98.97
20105;BME280;10212;42.714;23.310;2022-12-18T04:25:11;96161.59;;;2.44;98.88
20105;BME280;10212;42.714;23.310;2022-12-18T04:30:11;96172.13;;;2.40;98.13
20105;BME280;10212;42.714;23.310;2022-12-18T04:35:12;96178.66;;;2.45;97.26
20105;BME280;10212;42.714;23.310;2022-12-18T04:40:12;96181.16;;;2.35;96.87
20105;BME280;10212;42.714;23.310;2022-12-18T04:45:13;96188.78;;;2.25;95.73
20105;BME280;10212;42.714;23.310;2022-12-18T04:50:13;96199.09;;;2.25;95.73
20105;BME280;10212;42.714;23.310;2022-12-18T04:55:13;96208.34;;;2.27;95.25
20105;BME280;10212;42.714;23.310;2022-12-18T05:00:14;96217.34;;;2.22;94.91
20105;BME280;10212;42.714;23.310;2022-12-18T05:05:15;96222.19;;;2.15;95.12
20105;BME280;10212;42.714;23.310;2022-12-18T05:10:15;96222.63;;;2.20;95.16
20105;BME280;10212;42.714;23.310;2022-12-18T05:15:16;96233.16;;;2.17;95.01
20105;BME280;10212;42.714;23.310;2022-12-18T05:20:16;96241.72;;;2.17;95.13
20105;BME280;10212;42.714;23.310;2022-12-18T05:25:18;96255.03;;;2.23;95.43
20105;BME280;10212;42.714;23.310;2022-12-18T05:30:19;96257.47;;;2.24;94.78
20105;BME280;10212;42.714;23.310;2022-12-18T05:35:19;96269.53;;;2.24;94.21
20105;BME280;10212;42.714;23.310;2022-12-18T05:40:19;96280.53;;;2.14;93.15
20105;BME280;10212;42.714;23.310;2022-12-18T05:45:20;96278.09;;;2.13;92.66
20105;BME280;10212;42.714;23.310;2022-12-18T05:50:20;96281.72;;;2.10;93.16
20105;BME280;10212;42.714;23.310;2022-12-18T05:55:21;96288.97;;;2.16;92.24
20105;BME280;10212;42.714;23.310;2022-12-18T06:00:21;96292.34;;;2.17;92.08
20105;BME280;10212;42.714;23.310;2022-12-18T06:05:21;96306.06;;;2.17;92.20
20105;BME280;10212;42.714;23.310;2022-12-18T06:10:22;96309.53;;;2.16;91.78
20105;BME280;10212;42.714;23.310;2022-12-18T06:15:22;96306.41;;;2.13;92.00
20105;BME280;10212;42.714;23.310;2022-12-18T06:20:25;96303.56;;;2.16;91.98
20105;BME280;10212;42.714;23.310;2022-12-18T06:25:25;96320.09;;;2.13;91.77
20105;BME280;10212;42.714;23.310;2022-12-18T06:30:26;96321.72;;;2.14;91.33
20105;BME280;10212;42.714;23.310;2022-12-18T06:35:26;96321.13;;;2.11;90.72
20105;BME280;10212;42.714;23.310;2022-12-18T06:40:27;96334.13;;;2.09;91.13
20105;BME280;10212;42.714;23.310;2022-12-18T06:45:27;96339.25;;;2.09;90.20
20105;BME280;10212;42.714;23.310;2022-12-18T06:50:27;96347.22;;;2.17;89.16
20105;BME280;10212;42.714;23.310;2022-12-18T06:55:28;96355.88;;;2.16;87.86
20105;BME280;10212;42.714;23.310;2022-12-18T07:00:28;96349.56;;;2.21;87.72
20105;BME280;10212;42.714;23.310;2022-12-18T07:05:29;96355.16;;;2.26;86.69
20105;BME280;10212;42.714;23.310;2022-12-18T07:10:29;96364.53;;;2.15;87.50
20105;BME280;10212;42.714;23.310;2022-12-18T07:15:30;96372.38;;;2.14;87.96
20105;BME280;10212;42.714;23.310;2022-12-18T07:20:30;96372.47;;;2.12;88.64
20105;BME280;10212;42.714;23.310;2022-12-18T07:25:35;96365.94;;;2.08;88.76
20105;BME280;10212;42.714;23.310;2022-12-18T07:30:37;96368.97;;;2.02;90.11
20105;BME280;10212;42.714;23.310;2022-12-18T07:35:38;96382.19;;;1.97;89.78
20105;BME280;10212;42.714;23.310;2022-12-18T07:40:38;96390.28;;;1.92;90.76
20105;BME280;10212;42.714;23.310;2022-12-18T07:45:39;96391.66;;;1.97;90.75
20105;BME280;10212;42.714;23.310;2022-12-18T07:50:39;96391.31;;;1.90;91.43
20105;BME280;10212;42.714;23.310;2022-12-18T07:55:41;96392.13;;;1.90;91.90
20105;BME280;10212;42.714;23.310;2022-12-18T08:00:41;96408.75;;;1.98;91.77
20105;BME280;10212;42.714;23.310;2022-12-18T08:05:42;96419.97;;;2.08;91.60
20105;BME280;10212;42.714;23.310;2022-12-18T08:10:42;96415.06;;;2.16;91.20
20105;BME280;10212;42.714;23.310;2022-12-18T08:15:42;96426.66;;;2.22;90.55
20105;BME280;10212;42.714;23.310;2022-12-18T08:20:43;96427.94;;;2.16;90.60
20105;BME280;10212;42.714;23.310;2022-12-18T08:25:43;96443.84;;;2.33;88.80
20105;BME280;10212;42.714;23.310;2022-12-18T08:30:44;96439.16;;;2.50;87.03
20105;BME280;10212;42.714;23.310;2022-12-18T08:35:44;96453.56;;;2.52;86.75
20105;BME280;10212;42.714;23.310;2022-12-18T08:40:45;96453.81;;;2.49;84.96
20105;BME280;10212;42.714;23.310;2022-12-18T08:45:45;96445.00;;;2.52;84.58
20105;BME280;10212;42.714;23.310;2022-12-18T08:50:56;96466.09;;;2.46;84.17
20105;BME280;10212;42.714;23.310;2022-12-18T08:55:56;96466.41;;;2.41;83.99
20105;BME280;10212;42.714;23.310;2022-12-18T09:01:01;96455.31;;;2.52;83.95
20105;BME280;10212;42.714;23.310;2022-12-18T09:06:02;96448.53;;;2.51;82.69
20105;BME280;10212;42.714;23.310;2022-12-18T09:11:03;96447.13;;;2.58;83.04
20105;BME280;10212;42.714;23.310;2022-12-18T09:16:03;96450.63;;;2.69;82.17
20105;BME280;10212;42.714;23.310;2022-12-18T09:21:14;96463.50;;;2.69;81.22
20105;BME280;10212;42.714;23.310;2022-12-18T09:26:15;96456.19;;;2.85;80.35
20105;BME280;10212;42.714;23.310;2022-12-18T09:31:18;96455.03;;;2.78;79.72
20105;BME280;10212;42.714;23.310;2022-12-18T09:36:19;96454.81;;;2.81;79.98
20105;BME280;10212;42.714;23.310;2022-12-18T09:46:39;96457.84;;;2.86;79.25
20105;BME280;10212;42.714;23.310;2022-12-18T09:51:50;96449.94;;;3.11;77.83
20105;BME280;10212;42.714;23.310;2022-12-18T09:56:52;96453.56;;;3.08;77.69
20105;BME280;10212;42.714;23.310;2022-12-18T10:01:53;96449.75;;;2.91;76.92
20105;BME280;10212;42.714;23.310;2022-12-18T10:12:57;96461.09;;;3.00;78.17
20105;BME280;10212;42.714;23.310;2022-12-18T10:23:24;96452.00;;;3.29;76.75
20105;BME280;10212;42.714;23.310;2022-12-18T10:28:27;96454.69;;;3.48;76.40
20105;BME280;10212;42.714;23.310;2022-12-18T10:33:31;96450.63;;;3.46;75.59
20105;BME280;10212;42.714;23.310;2022-12-18T10:38:32;96454.28;;;3.65;76.14
20105;BME280;10212;42.714;23.310;2022-12-18T10:43:38;96452.59;;;3.54;76.24
20105;BME280;10212;42.714;23.310;2022-12-18T10:53:40;96449.00;;;3.45;76.39
20105;BME280;10212;42.714;23.310;2022-12-18T10:58:42;96446.19;;;3.69;75.98
20105;BME280;10212;42.714;23.310;2022-12-18T11:03:58;96446.66;;;3.84;75.16
20105;BME280;10212;42.714;23.310;2022-12-18T11:09:23;96456.03;;;3.43;74.12
20105;BME280;10212;42.714;23.310;2022-12-18T11:14:25;96448.50;;;3.51;74.30
20105;BME280;10212;42.714;23.310;2022-12-18T11:19:35;96441.81;;;3.70;74.51
20105;BME280;10212;42.714;23.310;2022-12-18T11:24:36;96453.97;;;3.79;73.87
20105;BME280;10212;42.714;23.310;2022-12-18T11:29:38;96460.09;;;3.78;74.14
20105;BME280;10212;42.714;23.310;2022-12-18T11:34:42;96453.34;;;3.66;74.90
20105;BME280;10212;42.714;23.310;2022-12-18T11:39:51;96449.19;;;3.74;74.23
20105;BME280;10212;42.714;23.310;2022-12-18T11:45:02;96454.22;;;3.76;74.47
20105;BME280;10212;42.714;23.310;2022-12-18T11:50:16;96455.63;;;3.59;73.95
20105;BME280;10212;42.714;23.310;2022-12-18T11:55:53;96451.78;;;3.53;74.89
20105;BME280;10212;42.714;23.310;2022-12-18T12:06:35;96449.44;;;3.50;75.26
20105;BME280;10212;42.714;23.310;2022-12-18T12:11:56;96447.06;;;3.58;75.05
20105;BME280;10212;42.714;23.310;2022-12-18T12:17:39;96438.78;;;3.86;74.61
20105;BME280;10212;42.714;23.310;2022-12-18T12:28:49;96449.44;;;3.93;73.33
20105;BME280;10212;42.714;23.310;2022-12-18T12:39:01;96467.44;;;3.83;74.22
20105;BME280;10212;42.714;23.310;2022-12-18T12:44:09;96453.59;;;3.84;74.75
20105;BME280;10212;42.714;23.310;2022-12-18T12:49:20;96444.28;;;3.71;75.55
20105;BME280;10212;42.714;23.310;2022-12-18T12:54:25;96462.22;;;3.73;75.72
20105;BME280;10212;42.714;23.310;2022-12-18T12:59:37;96467.63;;;3.70;74.71
20105;BME280;10212;42.714;23.310;2022-12-18T13:04:48;96464.47;;;3.45;74.56
20105;BME280;10212;42.714;23.310;2022-12-18T13:20:44;96490.00;;;3.48;74.83
20105;BME280;10212;42.714;23.310;2022-12-18T13:25:45;96495.69;;;3.30;76.11
20105;BME280;10212;42.714;23.310;2022-12-18T13:30:54;96490.28;;;3.33;75.78
20105;BME280;10212;42.714;23.310;2022-12-18T13:36:11;96500.03;;;3.30;76.28
20105;BME280;10212;42.714;23.310;2022-12-18T13:46:25;96504.34;;;3.41;76.55
20105;BME280;10212;42.714;23.310;2022-12-18T13:51:28;96509.75;;;3.26;76.42
20105;BME280;10212;42.714;23.310;2022-12-18T13:56:32;96518.06;;;3.30;75.12
20105;BME280;10212;42.714;23.310;2022-12-18T14:01:33;96526.56;;;3.09;74.14
20105;BME280;10212;42.714;23.310;2022-12-18T14:06:34;96527.38;;;3.09;74.38
20105;BME280;10212;42.714;23.310;2022-12-18T14:11:35;96529.84;;;3.11;74.29
20105;BME280;10212;42.714;23.310;2022-12-18T14:16:36;96528.19;;;3.10;74.52
20105;BME280;10212;42.714;23.310;2022-12-18T14:21:37;96533.59;;;3.07;74.86
20105;BME280;10212;42.714;23.310;2022-12-18T14:26:38;96537.00;;;2.96;74.95
20105;BME280;10212;42.714;23.310;2022-12-18T14:31:38;96543.56;;;3.00;74.58
20105;BME280;10212;42.714;23.310;2022-12-18T14:36:39;96548.34;;;3.05;73.14
20105;BME280;10212;42.714;23.310;2022-12-18T14:41:40;96548.13;;;2.96;73.24
20105;BME280;10212;42.714;23.310;2022-12-18T14:46:43;96552.25;;;2.99;73.02
20105;BME280;10212;42.714;23.310;2022-12-18T14:51:55;96550.59;;;2.86;72.18
20105;BME280;10212;42.714;23.310;2022-12-18T14:57:05;96557.75;;;2.83;72.20
20105;BME280;10212;42.714;23.310;2022-12-18T15:02:22;96555.06;;;2.84;71.61
20105;BME280;10212;42.714;23.310;2022-12-18T15:07:23;96561.38;;;2.69;71.58
20105;BME280;10212;42.714;23.310;2022-12-18T15:12:34;96553.19;;;2.63;71.39
20105;BME280;10212;42.714;23.310;2022-12-18T15:17:35;96557.75;;;2.60;71.68
20105;BME280;10212;42.714;23.310;2022-12-18T15:22:36;96557.75;;;2.60;72.00
20105;BME280;10212;42.714;23.310;2022-12-18T15:27:37;96558.06;;;2.55;71.89
20105;BME280;10212;42.714;23.310;2022-12-18T15:32:39;96577.50;;;2.48;71.58
20105;BME280;10212;42.714;23.310;2022-12-18T15:37:40;96574.25;;;2.46;72.39
20105;BME280;10212;42.714;23.310;2022-12-18T15:42:41;96585.91;;;2.38;73.03
20105;BME280;10212;42.714;23.310;2022-12-18T15:48:01;96590.59;;;2.45;73.20
20105;BME280;10212;42.714;23.310;2022-12-18T15:53:03;96600.94;;;2.56;73.42
20105;BME280;10212;42.714;23.310;2022-12-18T15:58:04;96599.16;;;2.57;73.81
20105;BME280;10212;42.714;23.310;2022-12-18T16:03:05;96611.31;;;2.43;74.24
20105;BME280;10212;42.714;23.310;2022-12-18T16:08:08;96621.13;;;2.38;75.25
20105;BME280;10212;42.714;23.310;2022-12-18T16:13:10;96633.66;;;2.43;75.35
20105;BME280;10212;42.714;23.310;2022-12-18T16:18:11;96626.53;;;2.46;75.61
20105;BME280;10212;42.714;23.310;2022-12-18T16:23:11;96620.66;;;2.44;75.10
20105;BME280;10212;42.714;23.310;2022-12-18T16:28:11;96627.13;;;2.38;75.28
20105;BME280;10212;42.714;23.310;2022-12-18T16:33:12;96629.22;;;2.33;74.50
20105;BME280;10212;42.714;23.310;2022-12-18T16:38:12;96642.03;;;2.22;75.28
20105;BME280;10212;42.714;23.310;2022-12-18T16:43:13;96652.69;;;2.28;75.23
20105;BME280;10212;42.714;23.310;2022-12-18T16:48:13;96660.31;;;2.30;75.40
20105;BME280;10212;42.714;23.310;2022-12-18T16:53:14;96673.19;;;2.30;75.96
20105;BME280;10212;42.714;23.310;2022-12-18T16:58:14;96673.28;;;2.28;75.32
20105;BME280;10212;42.714;23.310;2022-12-18T17:03:15;96690.72;;;2.25;75.63
20105;BME280;10212;42.714;23.310;2022-12-18T17:08:15;96698.66;;;2.22;74.99
20105;BME280;10212;42.714;23.310;2022-12-18T17:13:16;96704.88;;;2.19;74.97
20105;BME280;10212;42.714;23.310;2022-12-18T17:18:16;96709.81;;;2.09;74.75
20105;BME280;10212;42.714;23.310;2022-12-18T17:23:16;96713.25;;;1.97;74.84
20105;BME280;10212;42.714;23.310;2022-12-18T17:28:17;96728.09;;;1.93;75.47
20105;BME280;10212;42.714;23.310;2022-12-18T17:33:17;96733.28;;;1.80;76.31
20105;BME280;10212;42.714;23.310;2022-12-18T17:38:18;96731.13;;;1.74;77.02
20105;BME280;10212;42.714;23.310;2022-12-18T17:43:18;96720.78;;;1.62;77.00
20105;BME280;10212;42.714;23.310;2022-12-18T17:48:19;96716.44;;;1.63;75.96
20105;BME280;10212;42.714;23.310;2022-12-18T17:53:19;96724.78;;;1.66;76.06
20105;BME280;10212;42.714;23.310;2022-12-18T17:58:20;96718.94;;;1.64;75.58
20105;BME280;10212;42.714;23.310;2022-12-18T18:03:21;96733.03;;;1.46;75.21
20105;BME280;10212;42.714;23.310;2022-12-18T18:08:23;96731.09;;;1.36;75.53
20105;BME280;10212;42.714;23.310;2022-12-18T18:13:25;96731.00;;;1.38;76.18
20105;BME280;10212;42.714;23.310;2022-12-18T18:18:44;96733.34;;;1.28;77.01
20105;BME280;10212;42.714;23.310;2022-12-18T18:23:44;96733.06;;;1.19;77.72
20105;BME280;10212;42.714;23.310;2022-12-18T18:28:45;96734.50;;;1.24;77.67
20105;BME280;10212;42.714;23.310;2022-12-18T18:33:45;96745.78;;;1.08;77.80
20105;BME280;10212;42.714;23.310;2022-12-18T18:38:46;96745.78;;;1.08;77.22
20105;BME280;10212;42.714;23.310;2022-12-18T18:43:47;96763.25;;;1.03;77.18
20105;BME280;10212;42.714;23.310;2022-12-18T18:48:48;96766.44;;;0.93;77.12
20105;BME280;10212;42.714;23.310;2022-12-18T18:53:52;96769.03;;;0.93;77.27
20105;BME280;10212;42.714;23.310;2022-12-18T18:58:54;96768.59;;;0.87;77.77
20105;BME280;10212;42.714;23.310;2022-12-18T19:03:55;96780.28;;;0.78;78.62
20105;BME280;10212;42.714;23.310;2022-12-18T19:08:56;96785.38;;;0.65;79.75
20105;BME280;10212;42.714;23.310;2022-12-18T19:13:58;96786.59;;;0.59;79.50
20105;BME280;10212;42.714;23.310;2022-12-18T19:19:00;96793.53;;;0.44;79.53
20105;BME280;10212;42.714;23.310;2022-12-18T19:24:01;96803.59;;;0.47;79.03
20105;BME280;10212;42.714;23.310;2022-12-18T19:29:04;96800.94;;;0.48;79.36
20105;BME280;10212;42.714;23.310;2022-12-18T19:34:06;96795.44;;;0.55;78.89
20105;BME280;10212;42.714;23.310;2022-12-18T19:39:13;96807.91;;;0.46;79.16
20105;BME280;10212;42.714;23.310;2022-12-18T19:44:15;96816.00;;;0.40;79.82
20105;BME280;10212;42.714;23.310;2022-12-18T19:49:16;96827.13;;;0.26;80.62
20105;BME280;10212;42.714;23.310;2022-12-18T19:54:17;96826.19;;;0.27;81.25
20105;BME280;10212;42.714;23.310;2022-12-18T19:59:17;96827.69;;;0.17;81.53
20105;BME280;10212;42.714;23.310;2022-12-18T20:04:18;96836.41;;;0.14;81.77
20105;BME280;10212;42.714;23.310;2022-12-18T20:09:20;96839.88;;;-0.02;82.66
20105;BME280;10212;42.714;23.310;2022-12-18T20:14:21;96838.78;;;-0.12;82.82
20105;BME280;10212;42.714;23.310;2022-12-18T20:19:22;96844.50;;;-0.21;82.74
20105;BME280;10212;42.714;23.310;2022-12-18T20:24:22;96838.63;;;-0.23;82.48
20105;BME280;10212;42.714;23.310;2022-12-18T20:29:23;96847.94;;;-0.37;83.21
20105;BME280;10212;42.714;23.310;2022-12-18T20:34:23;96858.91;;;-0.64;84.58
20105;BME280;10212;42.714;23.310;2022-12-18T20:39:23;96874.38;;;-0.51;84.02
20105;BME280;10212;42.714;23.310;2022-12-18T20:44:25;96878.41;;;-0.62;84.35
20105;BME280;10212;42.714;23.310;2022-12-18T20:49:26;96877.75;;;-0.65;84.56
20105;BME280;10212;42.714;23.310;2022-12-18T20:54:26;96890.72;;;-0.68;84.59
20105;BME280;10212;42.714;23.310;2022-12-18T20:59:27;96890.00;;;-0.70;84.72
20105;BME280;10212;42.714;23.310;2022-12-18T21:04:28;96883.75;;;-0.81;85.23
20105;BME280;10212;42.714;23.310;2022-12-18T21:09:29;96884.84;;;-0.85;85.39
20105;BME280;10212;42.714;23.310;2022-12-18T21:14:32;96885.56;;;-0.83;84.81
20105;BME280;10212;42.714;23.310;2022-12-18T21:19:34;96891.59;;;-0.84;85.05
20105;BME280;10212;42.714;23.310;2022-12-18T21:24:34;96888.56;;;-0.91;84.92
20105;BME280;10212;42.714;23.310;2022-12-18T21:29:35;96882.88;;;-0.96;85.09
20105;BME280;10212;42.714;23.310;2022-12-18T21:34:36;96887.91;;;-0.94;85.05
20105;BME280;10212;42.714;23.310;2022-12-18T21:39:37;96901.97;;;-1.02;85.02
20105;BME280;10212;42.714;23.310;2022-12-18T21:44:38;96894.03;;;-0.97;85.33
20105;BME280;10212;42.714;23.310;2022-12-18T21:49:38;96895.16;;;-0.87;84.67
20105;BME280;10212;42.714;23.310;2022-12-18T21:54:39;96900.06;;;-0.98;84.78
20105;BME280;10212;42.714;23.310;2022-12-18T21:59:41;96903.97;;;-1.07;85.04
20105;BME280;10212;42.714;23.310;2022-12-18T22:04:43;96902.94;;;-1.04;85.01
20105;BME280;10212;42.714;23.310;2022-12-18T22:09:45;96905.28;;;-1.00;84.78
20105;BME280;10212;42.714;23.310;2022-12-18T22:14:46;96900.75;;;-1.11;84.93
20105;BME280;10212;42.714;23.310;2022-12-18T22:19:46;96905.13;;;-1.13;85.07
20105;BME280;10212;42.714;23.310;2022-12-18T22:24:47;96904.28;;;-1.13;84.87
20105;BME280;10212;42.714;23.310;2022-12-18T22:29:47;96894.22;;;-1.16;84.75
20105;BME280;10212;42.714;23.310;2022-12-18T22:35:06;96894.41;;;-1.19;84.83
20105;BME280;10212;42.714;23.310;2022-12-18T22:40:10;96889.63;;;-1.26;84.61
20105;BME280;10212;42.714;23.310;2022-12-18T22:45:17;96876.88;;;-1.11;84.50
20105;BME280;10212;42.714;23.310;2022-12-18T22:50:17;96878.94;;;-1.02;83.87
20105;BME280;10212;42.714;23.310;2022-12-18T22:55:18;96874.38;;;-0.97;83.72
20105;BME280;10212;42.714;23.310;2022-12-18T23:00:19;96871.91;;;-0.98;83.04
20105;BME280;10212;42.714;23.310;2022-12-18T23:05:19;96880.00;;;-1.06;83.06
20105;BME280;10212;42.714;23.310;2022-12-18T23:10:19;96886.44;;;-1.15;83.35
20105;BME280;10212;42.714;23.310;2022-12-18T23:15:20;96883.50;;;-1.39;84.09
20105;BME280;10212;42.714;23.310;2022-12-18T23:20:20;96891.63;;;-1.31;84.44
20105;BME280;10212;42.714;23.310;2022-12-18T23:25:20;96894.16;;;-1.31;84.58
20105;BME280;10212;42.714;23.310;2022-12-18T23:30:21;96891.00;;;-1.36;85.12
20105;BME280;10212;42.714;23.310;2022-12-18T23:35:21;96903.50;;;-1.30;84.82
20105;BME280;10212;42.714;23.310;2022-12-18T23:40:22;96893.56;;;-1.36;85.03
20105;BME280;10212;42.714;23.310;2022-12-18T23:45:22;96898.38;;;-1.30;84.83
20105;BME280;10212;42.714;23.310;2022-12-18T23:50:23;96895.06;;;-1.32;85.04
20105;BME280;10212;42.714;23.310;2022-12-18T23:55:23;96906.63;;;-1.25;84.95
